createdAt,value
2018-11-02T00:05:01.391Z,9.2
2018-11-02T00:10:03.884Z,9.1
2018-11-02T00:15:06.309Z,9.1
2018-11-02T00:20:08.836Z,9
2018-11-02T00:25:11.294Z,8.8
2018-11-02T00:30:13.693Z,8.6
2018-11-02T00:35:16.135Z,8.3
2018-11-02T00:40:18.596Z,7.9
2018-11-02T00:45:21.046Z,7.7
2018-11-02T00:50:23.544Z,7.5
2018-11-02T00:55:25.967Z,7.3
2018-11-02T01:00:28.456Z,7.1
2018-11-02T01:05:30.898Z,7
2018-11-02T01:10:33.337Z,6.9
2018-11-02T01:15:35.788Z,6.9
2018-11-02T01:20:38.251Z,6.9
2018-11-02T01:25:40.709Z,6.8
2018-11-02T01:30:43.170Z,6.8
2018-11-02T01:35:45.637Z,6.9
2018-11-02T01:40:48.075Z,6.9
2018-11-02T01:45:50.542Z,7
2018-11-02T01:50:52.997Z,7.1
2018-11-02T01:55:55.464Z,7.2
2018-11-02T02:00:57.905Z,7.1
2018-11-02T02:06:00.385Z,7.1
2018-11-02T02:11:02.835Z,7.1
2018-11-02T02:16:05.280Z,7.2
2018-11-02T02:21:07.745Z,7.3
2018-11-02T02:26:10.206Z,7.4
2018-11-02T02:31:12.668Z,7.6
2018-11-02T02:36:15.125Z,7.7
2018-11-02T02:41:17.585Z,7.7
2018-11-02T02:46:20.056Z,7.8
2018-11-02T02:51:22.584Z,7.9
2018-11-02T02:56:24.958Z,7.8
2018-11-02T03:01:27.430Z,7.8
2018-11-02T03:06:29.858Z,7.8
2018-11-02T03:11:32.355Z,7.8
2018-11-02T03:16:34.779Z,7.7
2018-11-02T03:21:37.232Z,7.7
2018-11-02T03:26:39.691Z,7.6
2018-11-02T03:31:42.268Z,7.5
2018-11-02T03:36:44.603Z,7.4
2018-11-02T03:41:47.094Z,7.4
2018-11-02T03:46:49.518Z,7.4
2018-11-02T03:51:51.982Z,7.2
2018-11-02T03:56:54.480Z,7.3
2018-11-02T04:01:56.875Z,7.3
2018-11-02T04:06:59.346Z,7.4
2018-11-02T04:12:01.852Z,7.4
2018-11-02T04:17:04.279Z,7.4
2018-11-02T04:22:06.722Z,7.2
2018-11-02T04:27:09.353Z,7.1
2018-11-02T04:32:11.663Z,7.1
2018-11-02T04:37:14.116Z,7.2
2018-11-02T04:42:16.619Z,7.4
2018-11-02T04:47:19.018Z,7.5
2018-11-02T04:52:21.493Z,7.4
2018-11-02T04:57:23.940Z,7.1
2018-11-02T05:02:26.481Z,7
2018-11-02T05:07:29.054Z,6.9
2018-11-02T05:12:31.352Z,6.6
2018-11-02T05:17:33.780Z,6.4
2018-11-02T05:22:36.343Z,6.3
2018-11-02T05:27:38.743Z,6.1
2018-11-02T05:32:41.276Z,5.9
2018-11-02T05:37:43.611Z,5.8
2018-11-02T05:42:46.264Z,5.6
2018-11-02T05:47:48.532Z,5.5
2018-11-02T05:52:51.043Z,5.4
2018-11-02T05:57:53.450Z,5.3
2018-11-02T06:02:55.888Z,5.3
2018-11-02T06:07:58.455Z,5.2
2018-11-02T06:13:00.852Z,5.3
2018-11-02T06:18:03.292Z,5.4
2018-11-02T06:23:05.719Z,5.3
2018-11-02T06:28:08.201Z,5.4
2018-11-02T06:33:10.657Z,5.7
2018-11-02T06:38:13.103Z,6.1
2018-11-02T06:43:15.576Z,6.3
2018-11-02T06:48:18.009Z,6.8
2018-11-02T06:53:20.469Z,7.2
2018-11-02T06:58:22.938Z,7.6
2018-11-02T07:03:25.411Z,8
2018-11-02T07:08:27.866Z,8.3
2018-11-02T07:13:30.362Z,8.8
2018-11-02T07:18:32.769Z,9.3
2018-11-02T07:23:35.217Z,9.6
2018-11-02T07:28:37.691Z,9.9
2018-11-02T07:33:40.170Z,10.3
2018-11-02T07:38:42.607Z,10.4
2018-11-02T07:43:45.142Z,10.5
2018-11-02T07:48:47.556Z,10.6
2018-11-02T07:53:49.987Z,10.7
2018-11-02T07:58:52.440Z,10.8
2018-11-02T08:03:54.888Z,10.8
2018-11-02T08:08:57.362Z,10.8
2018-11-02T08:13:59.814Z,10.7
2018-11-02T08:19:02.281Z,10.7
2018-11-02T08:24:04.731Z,10.6
2018-11-02T08:29:07.162Z,10.5
2018-11-02T08:34:09.673Z,10.7
2018-11-02T08:39:12.132Z,11
2018-11-02T08:44:14.561Z,11.2
2018-11-02T08:49:17.000Z,11.4
2018-11-02T08:54:19.463Z,11.7
2018-11-02T08:59:22.047Z,12.2
2018-11-02T09:04:24.447Z,12.7
2018-11-02T09:09:26.831Z,13.1
2018-11-02T09:14:29.280Z,13.3
2018-11-02T09:19:31.931Z,13.5
2018-11-02T09:24:34.194Z,13.7
2018-11-02T09:29:36.668Z,13.7
2018-11-02T09:34:39.128Z,13.7
2018-11-02T09:39:41.630Z,13.7
2018-11-02T09:44:44.171Z,13.9
2018-11-02T09:49:46.505Z,13.9
2018-11-02T09:54:48.936Z,14
2018-11-02T09:59:51.407Z,14
2018-11-02T10:04:53.863Z,14.1
2018-11-02T10:09:56.328Z,14.2
2018-11-02T10:14:58.775Z,14.3
2018-11-02T10:20:01.459Z,14.5
2018-11-02T10:25:03.735Z,14.6
2018-11-02T10:30:06.156Z,14.7
2018-11-02T10:35:08.737Z,14.6
2018-11-02T10:40:11.103Z,14.5
2018-11-02T10:45:13.672Z,14.4
2018-11-02T10:50:15.976Z,14.2
2018-11-02T10:55:18.435Z,14.2
2018-11-02T11:00:20.896Z,14.2
2018-11-02T11:05:23.452Z,14.3
2018-11-02T11:10:25.833Z,14.4
2018-11-02T11:15:28.270Z,14.3
2018-11-02T11:20:30.733Z,14.3
2018-11-02T11:25:33.179Z,14.2
2018-11-02T11:30:35.650Z,14.2
2018-11-02T11:35:38.097Z,14.3
2018-11-02T11:40:40.557Z,14.3
2018-11-02T11:45:43.019Z,14.4
2018-11-02T11:50:45.546Z,14.6
2018-11-02T11:55:47.920Z,14.7
2018-11-02T12:00:50.528Z,14.7
2018-11-02T12:05:52.841Z,14.6
2018-11-02T12:10:55.311Z,14.3
2018-11-02T12:15:57.876Z,14.1
2018-11-02T12:21:00.229Z,14.1
2018-11-02T12:26:02.684Z,14.2
2018-11-02T12:36:07.685Z,14.5
2018-11-02T12:41:10.054Z,14.7
2018-11-02T12:46:12.529Z,14.7
2018-11-02T12:51:14.958Z,14.8
2018-11-02T12:56:17.484Z,14.9
2018-11-02T13:01:19.885Z,15.1
2018-11-02T13:06:22.362Z,15
2018-11-02T13:11:24.815Z,15.1
2018-11-02T13:16:27.248Z,15
2018-11-02T13:21:29.777Z,14.9
2018-11-02T13:26:32.179Z,14.8
2018-11-02T13:31:34.657Z,14.7
2018-11-02T13:36:37.233Z,14.6
2018-11-02T13:41:39.575Z,14.7
2018-11-02T13:46:41.989Z,14.7
2018-11-02T13:51:44.463Z,14.6
2018-11-02T13:56:46.918Z,14.6
2018-11-02T14:01:49.436Z,14.4
2018-11-02T14:06:51.870Z,14.4
2018-11-02T14:11:54.281Z,14.4
2018-11-02T14:16:56.767Z,14.3
2018-11-02T14:21:59.188Z,14.1
2018-11-02T14:27:01.655Z,13.8
2018-11-02T14:32:04.101Z,13.5
2018-11-02T14:37:06.585Z,13.2
2018-11-02T14:42:09.014Z,12.9
2018-11-02T14:47:11.474Z,12.6
2018-11-02T14:52:13.974Z,12.4
2018-11-02T14:57:16.402Z,12.1
2018-11-02T15:02:18.846Z,11.9
2018-11-02T15:07:21.309Z,11.8
2018-11-02T15:12:23.771Z,11.5
2018-11-02T15:17:26.240Z,11.3
2018-11-02T15:22:28.691Z,11
2018-11-02T15:27:31.133Z,10.9
2018-11-02T15:32:33.604Z,10.9
2018-11-02T15:37:36.058Z,11
2018-11-02T15:42:38.507Z,11
2018-11-02T15:47:40.972Z,10.8
2018-11-02T15:52:43.429Z,10.9
2018-11-02T15:57:45.888Z,10.9
2018-11-02T16:02:48.348Z,10.9
2018-11-02T16:07:50.801Z,10.7
2018-11-02T16:12:53.372Z,10.7
2018-11-02T16:17:55.731Z,10.6
2018-11-02T16:22:58.174Z,10.6
2018-11-02T16:28:00.663Z,10.5
2018-11-02T16:33:03.090Z,10.4
2018-11-02T16:38:05.556Z,10.4
2018-11-02T16:43:08.038Z,10.3
2018-11-02T16:48:10.475Z,10.3
2018-11-02T16:53:12.932Z,10.1
2018-11-02T16:58:15.377Z,10.1
2018-11-02T17:03:17.870Z,10
2018-11-02T17:08:20.291Z,9.9
2018-11-02T17:13:22.770Z,9.7
2018-11-02T17:18:25.415Z,9.6
2018-11-02T17:23:27.669Z,9.3
2018-11-02T17:28:30.123Z,9.3
2018-11-02T17:33:32.648Z,9.2
2018-11-02T17:38:35.034Z,9.1
2018-11-02T17:43:37.547Z,9
2018-11-02T17:48:39.952Z,8.9
2018-11-02T17:53:42.426Z,8.8
2018-11-02T17:58:44.862Z,8.8
2018-11-02T18:03:47.347Z,8.8
2018-11-02T18:08:49.836Z,8.8
2018-11-02T18:13:52.241Z,8.8
2018-11-02T18:18:54.834Z,8.9
2018-11-02T18:23:57.150Z,8.9
2018-11-02T18:28:59.639Z,8.9
2018-11-02T18:34:02.083Z,8.9
2018-11-02T18:39:04.532Z,9.1
2018-11-02T18:44:07.004Z,9.1
2018-11-02T18:49:09.437Z,9.1
2018-11-02T18:54:11.894Z,9.1
2018-11-02T18:59:14.362Z,9.2
2018-11-02T19:04:16.812Z,9.3
2018-11-02T19:09:19.298Z,9.2
2018-11-02T19:14:21.729Z,9.3
2018-11-02T19:19:24.189Z,9.2
2018-11-02T19:24:26.667Z,9.2
2018-11-02T19:29:29.112Z,9.1
2018-11-02T19:34:31.766Z,9.2
2018-11-02T19:39:34.022Z,9.2
2018-11-02T19:44:36.677Z,9.1
2018-11-02T19:49:38.936Z,9.1
2018-11-02T19:54:41.422Z,9.1
2018-11-02T19:59:43.860Z,9
2018-11-02T20:04:46.323Z,9
2018-11-02T20:09:48.749Z,9
2018-11-02T20:14:51.222Z,8.9
2018-11-02T20:19:53.715Z,8.8
2018-11-02T20:24:56.130Z,8.8
2018-11-02T20:29:58.650Z,8.8
2018-11-02T20:35:01.102Z,8.8
2018-11-02T20:40:03.552Z,8.7
2018-11-02T20:45:05.987Z,8.6
2018-11-02T20:50:08.473Z,8.6
2018-11-02T20:55:10.883Z,8.5
2018-11-02T21:00:13.372Z,8.5
2018-11-02T21:05:15.843Z,8.5
2018-11-02T21:10:18.253Z,8.4
2018-11-02T21:15:20.714Z,8.3
2018-11-02T21:20:23.200Z,8.3
2018-11-02T21:25:25.678Z,8.3
2018-11-02T21:30:28.074Z,8.3
2018-11-02T21:35:30.539Z,8.3
2018-11-02T21:40:33.002Z,8.4
2018-11-02T21:45:35.453Z,8.4
2018-11-02T21:50:37.951Z,8.4
2018-11-02T21:55:40.360Z,8.3
2018-11-02T22:00:42.823Z,8.3
2018-11-02T22:05:45.429Z,8.3
2018-11-02T22:10:47.853Z,8.2
2018-11-02T22:15:50.207Z,8.2
2018-11-02T22:20:52.673Z,8.1
2018-11-02T22:25:55.134Z,8.1
2018-11-02T22:30:57.638Z,8.1
2018-11-02T22:36:00.304Z,8.1
2018-11-02T22:41:02.509Z,8.1
2018-11-02T22:46:04.959Z,8.1
2018-11-02T22:51:07.424Z,8.2
2018-11-02T22:56:09.945Z,8.2
2018-11-02T23:01:12.391Z,8.2
2018-11-02T23:06:14.930Z,8.3
2018-11-02T23:11:17.259Z,8.4
2018-11-02T23:16:19.725Z,8.4
2018-11-02T23:21:22.206Z,8.4
2018-11-02T23:26:24.627Z,8.4
2018-11-02T23:31:27.127Z,8.3
2018-11-02T23:36:29.558Z,8.3
2018-11-02T23:41:32.006Z,8.4
2018-11-02T23:46:34.463Z,8.4
2018-11-02T23:51:36.924Z,8.3
2018-11-02T23:56:39.414Z,8.3
